createdAt,value
2022-12-08T00:03:12.963Z,2.47
2022-12-08T00:08:33.422Z,2.48
2022-12-08T00:13:37.502Z,2.45
2022-12-08T00:18:40.247Z,2.38
2022-12-08T00:23:43.026Z,2.38
2022-12-08T00:28:47.261Z,2.30
2022-12-08T00:33:50.015Z,2.23
2022-12-08T00:38:52.768Z,2.21
2022-12-08T00:43:56.821Z,2.21
2022-12-08T00:48:59.554Z,2.14
2022-12-08T00:54:02.467Z,2.15
2022-12-08T00:59:07.683Z,2.10
2022-12-08T01:04:15.427Z,2.08
2022-12-08T01:09:18.855Z,2.12
2022-12-08T01:14:22.958Z,2.20
2022-12-08T01:19:25.702Z,2.20
2022-12-08T01:24:28.621Z,2.24
2022-12-08T01:29:32.754Z,2.30
2022-12-08T01:34:35.593Z,2.25
2022-12-08T01:39:38.364Z,2.33
2022-12-08T01:45:04.507Z,2.35
2022-12-08T01:50:08.496Z,2.29
2022-12-08T01:55:15.696Z,2.35
2022-12-08T02:00:21.933Z,2.40
2022-12-08T02:05:28.675Z,2.47
2022-12-08T02:10:34.409Z,2.53
2022-12-08T02:15:44.250Z,2.60
2022-12-08T02:20:54.718Z,2.66
2022-12-08T02:26:28.312Z,2.67
2022-12-08T02:31:38.227Z,2.68
2022-12-08T02:36:49.820Z,2.70
2022-12-08T02:41:55.911Z,2.74
2022-12-08T02:47:00.970Z,2.75
2022-12-08T02:52:29.416Z,2.76
2022-12-08T02:57:39.744Z,2.83
2022-12-08T03:02:54.043Z,2.84
2022-12-08T03:08:02.356Z,2.88
2022-12-08T03:13:09.187Z,2.87
2022-12-08T03:18:14.623Z,2.89
2022-12-08T03:23:20.025Z,2.90
2022-12-08T03:28:22.844Z,2.89
2022-12-08T03:33:27.985Z,2.91
2022-12-08T03:38:39.866Z,2.92
2022-12-08T03:43:42.619Z,2.95
2022-12-08T03:48:45.385Z,2.94
2022-12-08T03:53:49.670Z,2.98
2022-12-08T03:58:52.735Z,2.96
2022-12-08T04:03:55.533Z,2.94
2022-12-08T04:09:00.353Z,2.95
2022-12-08T04:14:03.103Z,2.94
2022-12-08T04:19:05.829Z,2.91
2022-12-08T04:24:10.339Z,2.94
2022-12-08T04:29:13.206Z,2.92
2022-12-08T04:34:15.963Z,2.95
2022-12-08T04:39:20.125Z,2.93
2022-12-08T04:44:22.874Z,2.90
2022-12-08T04:49:25.635Z,2.88
2022-12-08T04:54:29.789Z,2.87
2022-12-08T04:59:32.676Z,2.90
2022-12-08T05:04:35.557Z,2.91
2022-12-08T05:09:39.672Z,2.92
2022-12-08T05:14:42.427Z,2.89
2022-12-08T05:19:45.447Z,2.92
2022-12-08T05:24:49.589Z,2.94
2022-12-08T05:29:52.338Z,2.92
2022-12-08T05:34:55.053Z,2.86
2022-12-08T05:39:59.158Z,2.86
2022-12-08T05:45:01.924Z,2.85
2022-12-08T05:50:05.477Z,2.87
2022-12-08T05:55:11.379Z,2.84
2022-12-08T06:00:15.295Z,2.86
2022-12-08T06:05:18.294Z,2.85
2022-12-08T06:10:22.474Z,2.88
2022-12-08T06:15:26.297Z,2.91
2022-12-08T06:20:29.078Z,2.86
2022-12-08T06:25:33.197Z,2.88
2022-12-08T06:30:35.984Z,2.89
2022-12-08T06:35:38.723Z,2.89
2022-12-08T06:40:42.900Z,2.87
2022-12-08T06:45:45.681Z,2.86
2022-12-08T06:50:48.482Z,2.83
2022-12-08T06:55:59.682Z,2.84
2022-12-08T07:01:07.690Z,2.82
2022-12-08T07:06:14.629Z,2.80
2022-12-08T07:11:22.045Z,2.86
2022-12-08T07:16:25.562Z,2.79
2022-12-08T07:21:28.319Z,2.73
2022-12-08T07:26:32.432Z,2.68
2022-12-08T07:31:35.188Z,2.68
2022-12-08T07:36:37.947Z,2.82
2022-12-08T07:41:42.084Z,2.70
2022-12-08T07:46:44.899Z,2.65
2022-12-08T07:51:47.777Z,2.68
2022-12-08T07:56:51.851Z,2.95
2022-12-08T08:02:20.900Z,2.94
2022-12-08T08:07:17.339Z,2.95
2022-12-08T08:12:36.735Z,2.90
2022-12-08T08:17:40.252Z,2.81
2022-12-08T08:22:43.028Z,2.78
2022-12-08T08:27:48.195Z,2.73
2022-12-08T08:32:52.270Z,2.75
2022-12-08T08:37:55.023Z,2.71
2022-12-08T08:42:59.121Z,2.68
2022-12-08T08:48:02.154Z,2.72
2022-12-08T08:53:04.882Z,2.80
2022-12-08T08:58:09.018Z,2.80
2022-12-08T09:03:13.163Z,2.64
2022-12-08T09:08:16.578Z,2.70
2022-12-08T09:13:20.835Z,2.66
2022-12-08T09:18:23.615Z,2.62
2022-12-08T09:23:29.437Z,2.57
2022-12-08T09:28:38.427Z,2.63
2022-12-08T09:33:41.216Z,2.63
2022-12-08T09:38:43.979Z,2.71
2022-12-08T09:43:57.006Z,2.72
2022-12-08T09:49:00.838Z,2.69
2022-12-08T09:54:12.576Z,2.62
2022-12-08T09:59:24.990Z,2.70
2022-12-08T10:04:32.237Z,2.45
2022-12-08T10:09:40.662Z,2.45
2022-12-08T10:14:47.341Z,2.34
2022-12-08T10:19:50.758Z,2.32
2022-12-08T10:24:57.289Z,2.22
2022-12-08T10:30:01.683Z,2.33
2022-12-08T10:35:08.102Z,2.47
2022-12-08T10:40:13.178Z,2.54
2022-12-08T10:45:24.459Z,2.53
2022-12-08T10:50:32.393Z,2.55
2022-12-08T10:55:41.873Z,2.63
2022-12-08T11:00:46.104Z,2.52
2022-12-08T11:05:49.026Z,2.59
2022-12-08T11:10:51.916Z,2.74
2022-12-08T11:15:57.136Z,2.80
2022-12-08T11:21:07.676Z,2.58
2022-12-08T11:26:19.333Z,2.73
2022-12-08T11:31:29.192Z,2.73
2022-12-08T11:36:34.138Z,2.76
2022-12-08T11:41:39.136Z,2.93
2022-12-08T11:46:49.015Z,2.72
2022-12-08T11:51:54.699Z,2.76
2022-12-08T11:56:59.480Z,2.81
2022-12-08T12:02:04.818Z,2.93
2022-12-08T12:07:47.422Z,2.82
2022-12-08T12:13:00.273Z,2.67
2022-12-08T12:18:05.482Z,2.76
2022-12-08T12:23:13.899Z,2.81
2022-12-08T12:28:18.882Z,2.80
2022-12-08T12:33:24.021Z,2.83
2022-12-08T12:38:46.133Z,2.87
2022-12-08T12:44:10.578Z,2.95
2022-12-08T12:49:50.839Z,2.91
2022-12-08T12:55:26.749Z,2.89
2022-12-08T13:00:30.847Z,3.00
2022-12-08T13:05:36.757Z,3.07
2022-12-08T13:10:40.690Z,3.20
2022-12-08T13:15:50.142Z,3.03
2022-12-08T13:20:54.321Z,3.21
2022-12-08T13:26:16.466Z,3.22
2022-12-08T13:31:38.108Z,3.18
2022-12-08T13:36:44.595Z,3.27
2022-12-08T13:41:54.646Z,3.15
2022-12-08T13:57:56.424Z,3.15
2022-12-08T14:03:01.806Z,3.29
2022-12-08T14:08:07.564Z,3.27
2022-12-08T14:13:12.610Z,3.20
2022-12-08T14:18:26.339Z,3.22
2022-12-08T14:23:29.116Z,3.04
2022-12-08T14:28:32.412Z,3.06
2022-12-08T14:33:36.558Z,3.10
2022-12-08T14:38:39.410Z,3.07
2022-12-08T14:43:43.040Z,3.10
2022-12-08T14:48:47.324Z,3.03
2022-12-08T14:53:54.751Z,2.94
2022-12-08T14:59:06.771Z,3.06
2022-12-08T15:04:20.202Z,2.97
2022-12-08T15:09:36.244Z,2.93
2022-12-08T15:14:42.277Z,2.86
2022-12-08T15:19:56.543Z,2.91
2022-12-08T15:24:59.464Z,2.85
2022-12-08T15:30:02.435Z,2.84
2022-12-08T15:35:09.105Z,2.90
2022-12-08T15:40:18.023Z,2.88
2022-12-08T15:45:28.693Z,2.85
2022-12-08T15:50:32.905Z,2.82
2022-12-08T15:55:39.034Z,2.80
2022-12-08T16:00:52.973Z,2.77
2022-12-08T16:06:44.288Z,2.71
2022-12-08T16:12:05.139Z,2.64
2022-12-08T16:17:03.464Z,2.61
2022-12-08T16:28:00.152Z,2.49
2022-12-08T16:32:55.492Z,2.47
2022-12-08T16:37:59.619Z,2.46
2022-12-08T16:43:02.376Z,2.38
2022-12-08T16:48:05.533Z,2.33
2022-12-08T16:53:12.231Z,2.29
2022-12-08T16:58:15.018Z,2.29
2022-12-08T17:03:18.842Z,2.24
2022-12-08T17:08:23.069Z,2.36
2022-12-08T17:13:25.968Z,2.34
2022-12-08T17:18:28.741Z,2.21
2022-12-08T17:23:32.821Z,2.26
2022-12-08T17:28:59.484Z,2.28
2022-12-08T17:33:59.242Z,2.27
2022-12-08T17:39:03.382Z,2.22
2022-12-08T17:44:11.846Z,2.18
2022-12-08T17:49:18.353Z,2.20
2022-12-08T17:54:22.843Z,2.18
2022-12-08T17:59:26.283Z,2.14
2022-12-08T18:04:29.600Z,2.17
2022-12-08T18:09:34.139Z,2.21
2022-12-08T18:14:36.878Z,2.17
2022-12-08T18:19:39.638Z,2.06
2022-12-08T18:24:44.701Z,2.15
2022-12-08T18:29:47.606Z,2.19
2022-12-08T18:34:50.502Z,2.20
2022-12-08T18:39:54.641Z,2.20
2022-12-08T18:45:02.663Z,2.25
2022-12-08T18:50:06.942Z,2.05
2022-12-08T18:55:12.276Z,2.09
2022-12-08T19:00:17.298Z,1.99
2022-12-08T19:05:20.175Z,2.05
2022-12-08T19:10:24.489Z,2.01
2022-12-08T19:15:27.431Z,1.93
2022-12-08T19:20:31.378Z,1.94
2022-12-08T19:25:35.473Z,1.92
2022-12-08T19:30:38.278Z,1.80
2022-12-08T19:35:41.098Z,1.92
2022-12-08T19:41:03.795Z,1.78
2022-12-08T19:46:06.981Z,1.95
2022-12-08T19:51:10.041Z,1.72
2022-12-08T19:56:14.133Z,1.78
2022-12-08T20:01:17.245Z,1.79
2022-12-08T20:06:20.265Z,1.65
2022-12-08T20:11:24.392Z,1.67
2022-12-08T20:16:27.372Z,1.67
2022-12-08T20:21:30.257Z,1.63
2022-12-08T20:26:34.427Z,1.65
2022-12-08T20:31:37.370Z,1.59
2022-12-08T20:36:40.181Z,1.60
2022-12-08T20:41:45.240Z,1.56
2022-12-08T20:46:49.776Z,1.52
2022-12-08T20:51:52.670Z,1.52
2022-12-08T20:56:56.999Z,1.28
2022-12-08T21:02:00.381Z,1.43
2022-12-08T21:07:03.716Z,1.27
2022-12-08T21:12:08.190Z,1.15
2022-12-08T21:17:11.207Z,1.17
2022-12-08T21:22:14.321Z,1.24
2022-12-08T21:27:18.507Z,1.17
2022-12-08T21:32:25.643Z,1.14
2022-12-08T21:37:31.730Z,1.23
2022-12-08T21:42:46.844Z,1.17
2022-12-08T21:47:50.825Z,1.15
2022-12-08T21:52:53.803Z,1.34
2022-12-08T21:58:00.891Z,1.34
2022-12-08T22:03:04.247Z,1.46
2022-12-08T22:08:07.452Z,1.39
2022-12-08T22:13:11.689Z,1.39
2022-12-08T22:18:14.685Z,1.22
2022-12-08T22:23:17.895Z,1.35
2022-12-08T22:28:22.253Z,1.14
2022-12-08T22:33:25.234Z,1.29
2022-12-08T22:38:28.479Z,1.29
2022-12-08T22:43:33.335Z,1.18
2022-12-08T22:48:36.291Z,0.95
2022-12-08T22:53:39.327Z,1.02
2022-12-08T22:58:44.118Z,1.00
2022-12-08T23:03:47.023Z,1.11
2022-12-08T23:08:50.385Z,1.24
2022-12-08T23:13:55.944Z,1.09
2022-12-08T23:18:59.776Z,1.01
2022-12-08T23:24:02.684Z,1.01
2022-12-08T23:29:06.970Z,1.05
2022-12-08T23:34:10.438Z,1.20
2022-12-08T23:39:13.239Z,1.17
2022-12-08T23:44:17.727Z,1.22
2022-12-08T23:49:21.272Z,1.16
2022-12-08T23:54:24.317Z,1.14
2022-12-08T23:59:28.411Z,1.01
